sensor_id;sensor_type;location;lat;lon;timestamp;P1;durP1;ratioP1;P2;durP2;ratioP2
27333;SDS011;14817;57.104;-2.094;2023-07-13T00:01:32;2.28;;;1.13;;
27333;SDS011;14817;57.104;-2.094;2023-07-13T00:03:59;5.00;;;1.50;;
27333;SDS011;14817;57.104;-2.094;2023-07-13T00:06:26;2.85;;;1.35;;
27333;SDS011;14817;57.104;-2.094;2023-07-13T00:08:56;2.47;;;1.00;;
27333;SDS011;14817;57.104;-2.094;2023-07-13T00:11:23;1.60;;;1.10;;
27333;SDS011;14817;57.104;-2.094;2023-07-13T00:13:50;3.13;;;1.20;;
27333;SDS011;14817;57.104;-2.094;2023-07-13T00:16:17;3.72;;;1.23;;
27333;SDS011;14817;57.104;-2.094;2023-07-13T00:18:45;8.00;;;1.60;;
27333;SDS011;14817;57.104;-2.094;2023-07-13T00:21:13;3.28;;;1.23;;
27333;SDS011;14817;57.104;-2.094;2023-07-13T00:23:41;4.50;;;1.65;;
27333;SDS011;14817;57.104;-2.094;2023-07-13T00:26:10;4.25;;;1.42;;
27333;SDS011;14817;57.104;-2.094;2023-07-13T00:28:39;3.22;;;1.17;;
27333;SDS011;14817;57.104;-2.094;2023-07-13T00:31:09;2.95;;;1.30;;
27333;SDS011;14817;57.104;-2.094;2023-07-13T00:33:37;5.55;;;1.10;;
27333;SDS011;14817;57.104;-2.094;2023-07-13T00:36:04;5.53;;;1.33;;
27333;SDS011;14817;57.104;-2.094;2023-07-13T00:38:31;4.57;;;1.15;;
27333;SDS011;14817;57.104;-2.094;2023-07-13T00:40:58;2.88;;;1.20;;
27333;SDS011;14817;57.104;-2.094;2023-07-13T00:43:27;5.40;;;1.30;;
27333;SDS011;14817;57.104;-2.094;2023-07-13T00:48:26;4.63;;;1.27;;
27333;SDS011;14817;57.104;-2.094;2023-07-13T00:50:56;6.78;;;1.50;;
27333;SDS011;14817;57.104;-2.094;2023-07-13T00:55:55;2.60;;;1.23;;
27333;SDS011;14817;57.104;-2.094;2023-07-13T00:58:26;7.32;;;1.83;;
27333;SDS011;14817;57.104;-2.094;2023-07-13T01:00:54;2.78;;;1.13;;
27333;SDS011;14817;57.104;-2.094;2023-07-13T01:03:21;5.00;;;1.77;;
27333;SDS011;14817;57.104;-2.094;2023-07-13T01:05:48;4.82;;;1.58;;
27333;SDS011;14817;57.104;-2.094;2023-07-13T01:08:16;2.85;;;1.40;;
27333;SDS011;14817;57.104;-2.094;2023-07-13T01:10:56;4.70;;;2.65;;
27333;SDS011;14817;57.104;-2.094;2023-07-13T01:13:24;1.63;;;1.40;;
27333;SDS011;14817;57.104;-2.094;2023-07-13T01:15:52;4.05;;;1.42;;
27333;SDS011;14817;57.104;-2.094;2023-07-13T01:18:22;5.43;;;1.70;;
27333;SDS011;14817;57.104;-2.094;2023-07-13T01:20:57;5.40;;;1.70;;
27333;SDS011;14817;57.104;-2.094;2023-07-13T01:23:26;4.80;;;1.45;;
27333;SDS011;14817;57.104;-2.094;2023-07-13T01:25:55;2.50;;;1.40;;
27333;SDS011;14817;57.104;-2.094;2023-07-13T01:28:23;2.50;;;1.55;;
27333;SDS011;14817;57.104;-2.094;2023-07-13T01:30:54;2.30;;;1.20;;
27333;SDS011;14817;57.104;-2.094;2023-07-13T01:33:22;5.10;;;1.58;;
27333;SDS011;14817;57.104;-2.094;2023-07-13T01:35:49;2.88;;;1.90;;
27333;SDS011;14817;57.104;-2.094;2023-07-13T01:38:17;5.78;;;1.70;;
27333;SDS011;14817;57.104;-2.094;2023-07-13T01:40:46;8.50;;;2.22;;
27333;SDS011;14817;57.104;-2.094;2023-07-13T01:43:13;5.20;;;1.75;;
27333;SDS011;14817;57.104;-2.094;2023-07-13T01:45:40;4.18;;;1.50;;
27333;SDS011;14817;57.104;-2.094;2023-07-13T01:48:10;5.93;;;1.17;;
27333;SDS011;14817;57.104;-2.094;2023-07-13T01:50:38;3.03;;;1.17;;
27333;SDS011;14817;57.104;-2.094;2023-07-13T01:53:06;3.70;;;1.60;;
27333;SDS011;14817;57.104;-2.094;2023-07-13T01:55:34;3.15;;;1.80;;
27333;SDS011;14817;57.104;-2.094;2023-07-13T01:58:02;2.20;;;1.13;;
27333;SDS011;14817;57.104;-2.094;2023-07-13T02:00:29;2.65;;;1.20;;
27333;SDS011;14817;57.104;-2.094;2023-07-13T02:02:56;4.45;;;1.85;;
27333;SDS011;14817;57.104;-2.094;2023-07-13T02:05:24;2.92;;;1.33;;
27333;SDS011;14817;57.104;-2.094;2023-07-13T02:07:51;4.55;;;1.80;;
27333;SDS011;14817;57.104;-2.094;2023-07-13T02:10:19;4.90;;;1.58;;
27333;SDS011;14817;57.104;-2.094;2023-07-13T02:12:48;2.05;;;1.50;;
27333;SDS011;14817;57.104;-2.094;2023-07-13T02:15:17;2.25;;;1.70;;
27333;SDS011;14817;57.104;-2.094;2023-07-13T02:17:44;2.60;;;1.33;;
27333;SDS011;14817;57.104;-2.094;2023-07-13T02:20:11;5.95;;;1.80;;
27333;SDS011;14817;57.104;-2.094;2023-07-13T02:22:38;4.97;;;1.90;;
27333;SDS011;14817;57.104;-2.094;2023-07-13T02:25:05;2.15;;;1.38;;
27333;SDS011;14817;57.104;-2.094;2023-07-13T02:27:32;4.75;;;1.70;;
27333;SDS011;14817;57.104;-2.094;2023-07-13T02:29:59;5.07;;;1.73;;
27333;SDS011;14817;57.104;-2.094;2023-07-13T02:32:26;3.08;;;1.23;;
27333;SDS011;14817;57.104;-2.094;2023-07-13T02:34:53;3.78;;;1.48;;
27333;SDS011;14817;57.104;-2.094;2023-07-13T02:37:21;2.70;;;1.13;;
27333;SDS011;14817;57.104;-2.094;2023-07-13T02:39:48;3.22;;;1.35;;
27333;SDS011;14817;57.104;-2.094;2023-07-13T02:42:15;2.35;;;1.25;;
27333;SDS011;14817;57.104;-2.094;2023-07-13T02:44:43;2.70;;;1.35;;
27333;SDS011;14817;57.104;-2.094;2023-07-13T02:47:10;2.50;;;1.73;;
27333;SDS011;14817;57.104;-2.094;2023-07-13T02:49:37;2.03;;;1.20;;
27333;SDS011;14817;57.104;-2.094;2023-07-13T02:52:04;4.45;;;1.15;;
27333;SDS011;14817;57.104;-2.094;2023-07-13T02:54:31;2.00;;;1.25;;
27333;SDS011;14817;57.104;-2.094;2023-07-13T02:56:58;3.22;;;1.42;;
27333;SDS011;14817;57.104;-2.094;2023-07-13T02:59:28;6.38;;;1.50;;
27333;SDS011;14817;57.104;-2.094;2023-07-13T03:01:55;3.95;;;2.13;;
27333;SDS011;14817;57.104;-2.094;2023-07-13T03:04:22;6.50;;;1.60;;
27333;SDS011;14817;57.104;-2.094;2023-07-13T03:06:50;1.92;;;1.00;;
27333;SDS011;14817;57.104;-2.094;2023-07-13T03:09:17;7.43;;;1.80;;
27333;SDS011;14817;57.104;-2.094;2023-07-13T03:11:52;5.57;;;1.70;;
27333;SDS011;14817;57.104;-2.094;2023-07-13T03:14:28;2.30;;;1.27;;
27333;SDS011;14817;57.104;-2.094;2023-07-13T03:16:55;3.42;;;1.38;;
27333;SDS011;14817;57.104;-2.094;2023-07-13T03:19:26;3.10;;;1.23;;
27333;SDS011;14817;57.104;-2.094;2023-07-13T03:21:53;4.15;;;1.55;;
27333;SDS011;14817;57.104;-2.094;2023-07-13T03:24:20;1.92;;;1.40;;
27333;SDS011;14817;57.104;-2.094;2023-07-13T03:26:51;3.77;;;1.60;;
27333;SDS011;14817;57.104;-2.094;2023-07-13T03:29:18;2.85;;;1.42;;
27333;SDS011;14817;57.104;-2.094;2023-07-13T03:31:45;1.75;;;1.17;;
27333;SDS011;14817;57.104;-2.094;2023-07-13T03:34:13;2.20;;;1.40;;
27333;SDS011;14817;57.104;-2.094;2023-07-13T03:36:40;3.00;;;1.40;;
27333;SDS011;14817;57.104;-2.094;2023-07-13T03:39:10;2.85;;;1.17;;
27333;SDS011;14817;57.104;-2.094;2023-07-13T03:41:47;1.80;;;1.17;;
27333;SDS011;14817;57.104;-2.094;2023-07-13T03:44:18;3.42;;;1.35;;
27333;SDS011;14817;57.104;-2.094;2023-07-13T03:46:49;3.55;;;1.30;;
27333;SDS011;14817;57.104;-2.094;2023-07-13T03:49:16;4.03;;;1.35;;
27333;SDS011;14817;57.104;-2.094;2023-07-13T03:51:43;2.38;;;1.35;;
27333;SDS011;14817;57.104;-2.094;2023-07-13T03:54:10;2.42;;;1.42;;
27333;SDS011;14817;57.104;-2.094;2023-07-13T03:56:37;1.83;;;1.20;;
27333;SDS011;14817;57.104;-2.094;2023-07-13T03:59:06;3.63;;;1.27;;
27333;SDS011;14817;57.104;-2.094;2023-07-13T04:01:33;2.70;;;1.23;;
27333;SDS011;14817;57.104;-2.094;2023-07-13T04:04:00;2.10;;;1.30;;
27333;SDS011;14817;57.104;-2.094;2023-07-13T04:06:30;4.22;;;1.83;;
27333;SDS011;14817;57.104;-2.094;2023-07-13T04:08:59;1.52;;;1.00;;
27333;SDS011;14817;57.104;-2.094;2023-07-13T04:11:31;3.95;;;1.02;;
27333;SDS011;14817;57.104;-2.094;2023-07-13T04:13:59;1.70;;;1.15;;
27333;SDS011;14817;57.104;-2.094;2023-07-13T04:16:26;2.88;;;1.50;;
27333;SDS011;14817;57.104;-2.094;2023-07-13T04:18:54;2.90;;;1.13;;
27333;SDS011;14817;57.104;-2.094;2023-07-13T04:21:26;2.10;;;1.25;;
27333;SDS011;14817;57.104;-2.094;2023-07-13T04:23:54;2.95;;;1.52;;
27333;SDS011;14817;57.104;-2.094;2023-07-13T04:26:21;2.78;;;1.10;;
27333;SDS011;14817;57.104;-2.094;2023-07-13T04:28:49;3.60;;;1.35;;
27333;SDS011;14817;57.104;-2.094;2023-07-13T04:31:16;2.22;;;1.45;;
27333;SDS011;14817;57.104;-2.094;2023-07-13T04:33:44;2.50;;;1.05;;
27333;SDS011;14817;57.104;-2.094;2023-07-13T04:36:13;2.60;;;1.10;;
27333;SDS011;14817;57.104;-2.094;2023-07-13T04:38:42;4.75;;;1.23;;
27333;SDS011;14817;57.104;-2.094;2023-07-13T04:41:08;5.22;;;1.75;;
27333;SDS011;14817;57.104;-2.094;2023-07-13T04:43:36;3.45;;;1.38;;
27333;SDS011;14817;57.104;-2.094;2023-07-13T04:46:04;4.30;;;1.48;;
27333;SDS011;14817;57.104;-2.094;2023-07-13T04:48:32;5.97;;;1.45;;
27333;SDS011;14817;57.104;-2.094;2023-07-13T04:51:00;4.40;;;1.13;;
27333;SDS011;14817;57.104;-2.094;2023-07-13T04:53:28;3.47;;;1.33;;
27333;SDS011;14817;57.104;-2.094;2023-07-13T04:55:56;4.78;;;1.42;;
27333;SDS011;14817;57.104;-2.094;2023-07-13T04:58:23;3.03;;;1.20;;
27333;SDS011;14817;57.104;-2.094;2023-07-13T05:00:50;2.35;;;1.30;;
27333;SDS011;14817;57.104;-2.094;2023-07-13T05:03:17;4.25;;;1.50;;
27333;SDS011;14817;57.104;-2.094;2023-07-13T05:05:53;3.25;;;1.35;;
27333;SDS011;14817;57.104;-2.094;2023-07-13T05:08:22;4.13;;;1.15;;
27333;SDS011;14817;57.104;-2.094;2023-07-13T05:10:49;2.78;;;1.17;;
27333;SDS011;14817;57.104;-2.094;2023-07-13T05:13:16;4.90;;;1.10;;
27333;SDS011;14817;57.104;-2.094;2023-07-13T05:15:43;3.13;;;1.58;;
27333;SDS011;14817;57.104;-2.094;2023-07-13T05:18:10;2.15;;;1.17;;
27333;SDS011;14817;57.104;-2.094;2023-07-13T05:20:37;2.28;;;1.17;;
27333;SDS011;14817;57.104;-2.094;2023-07-13T05:23:04;3.50;;;1.60;;
27333;SDS011;14817;57.104;-2.094;2023-07-13T05:25:31;3.40;;;1.58;;
27333;SDS011;14817;57.104;-2.094;2023-07-13T05:27:58;2.10;;;1.20;;
27333;SDS011;14817;57.104;-2.094;2023-07-13T05:30:25;5.43;;;1.70;;
27333;SDS011;14817;57.104;-2.094;2023-07-13T05:32:52;3.90;;;1.50;;
27333;SDS011;14817;57.104;-2.094;2023-07-13T05:35:18;1.25;;;1.02;;
27333;SDS011;14817;57.104;-2.094;2023-07-13T05:37:45;2.15;;;1.00;;
27333;SDS011;14817;57.104;-2.094;2023-07-13T05:40:12;3.83;;;1.42;;
27333;SDS011;14817;57.104;-2.094;2023-07-13T05:42:39;2.65;;;1.10;;
27333;SDS011;14817;57.104;-2.094;2023-07-13T05:45:06;1.85;;;0.80;;
27333;SDS011;14817;57.104;-2.094;2023-07-13T05:47:33;1.48;;;1.00;;
27333;SDS011;14817;57.104;-2.094;2023-07-13T05:50:00;4.53;;;1.27;;
27333;SDS011;14817;57.104;-2.094;2023-07-13T05:52:31;4.75;;;1.08;;
27333;SDS011;14817;57.104;-2.094;2023-07-13T05:54:58;2.83;;;1.10;;
27333;SDS011;14817;57.104;-2.094;2023-07-13T05:57:25;1.83;;;1.10;;
27333;SDS011;14817;57.104;-2.094;2023-07-13T05:59:52;2.22;;;1.23;;
27333;SDS011;14817;57.104;-2.094;2023-07-13T06:02:18;5.43;;;1.08;;
27333;SDS011;14817;57.104;-2.094;2023-07-13T06:04:45;1.17;;;0.88;;
27333;SDS011;14817;57.104;-2.094;2023-07-13T06:07:12;4.03;;;1.27;;
27333;SDS011;14817;57.104;-2.094;2023-07-13T06:09:39;1.75;;;0.80;;
27333;SDS011;14817;57.104;-2.094;2023-07-13T06:12:06;1.48;;;0.90;;
27333;SDS011;14817;57.104;-2.094;2023-07-13T06:14:33;2.45;;;0.95;;
27333;SDS011;14817;57.104;-2.094;2023-07-13T06:17:00;2.22;;;0.90;;
27333;SDS011;14817;57.104;-2.094;2023-07-13T06:19:28;4.82;;;1.00;;
27333;SDS011;14817;57.104;-2.094;2023-07-13T06:21:55;2.20;;;0.70;;
27333;SDS011;14817;57.104;-2.094;2023-07-13T06:24:23;2.15;;;0.82;;
27333;SDS011;14817;57.104;-2.094;2023-07-13T06:26:50;1.70;;;0.90;;
27333;SDS011;14817;57.104;-2.094;2023-07-13T06:29:17;2.75;;;0.60;;
27333;SDS011;14817;57.104;-2.094;2023-07-13T06:31:44;1.40;;;0.50;;
27333;SDS011;14817;57.104;-2.094;2023-07-13T06:34:10;2.42;;;0.45;;
27333;SDS011;14817;57.104;-2.094;2023-07-13T06:36:37;2.60;;;0.50;;
27333;SDS011;14817;57.104;-2.094;2023-07-13T06:39:06;2.17;;;0.95;;
27333;SDS011;14817;57.104;-2.094;2023-07-13T06:41:33;0.93;;;0.50;;
27333;SDS011;14817;57.104;-2.094;2023-07-13T06:44:01;1.58;;;0.77;;
27333;SDS011;14817;57.104;-2.094;2023-07-13T06:46:28;1.85;;;0.75;;
27333;SDS011;14817;57.104;-2.094;2023-07-13T06:48:56;2.08;;;0.93;;
27333;SDS011;14817;57.104;-2.094;2023-07-13T06:51:23;1.65;;;0.82;;
27333;SDS011;14817;57.104;-2.094;2023-07-13T06:53:50;3.13;;;0.63;;
27333;SDS011;14817;57.104;-2.094;2023-07-13T06:56:16;3.33;;;1.15;;
27333;SDS011;14817;57.104;-2.094;2023-07-13T06:58:43;1.60;;;0.60;;
27333;SDS011;14817;57.104;-2.094;2023-07-13T07:01:10;1.00;;;0.80;;
27333;SDS011;14817;57.104;-2.094;2023-07-13T07:03:37;1.05;;;0.65;;
27333;SDS011;14817;57.104;-2.094;2023-07-13T07:06:15;1.25;;;0.60;;
27333;SDS011;14817;57.104;-2.094;2023-07-13T07:08:44;3.15;;;1.02;;
27333;SDS011;14817;57.104;-2.094;2023-07-13T07:11:13;1.90;;;0.70;;
27333;SDS011;14817;57.104;-2.094;2023-07-13T07:13:41;1.30;;;0.70;;
27333;SDS011;14817;57.104;-2.094;2023-07-13T07:16:08;0.82;;;0.45;;
27333;SDS011;14817;57.104;-2.094;2023-07-13T07:18:35;1.95;;;0.60;;
27333;SDS011;14817;57.104;-2.094;2023-07-13T07:21:02;1.52;;;0.73;;
27333;SDS011;14817;57.104;-2.094;2023-07-13T07:23:30;3.42;;;0.75;;
27333;SDS011;14817;57.104;-2.094;2023-07-13T07:25:57;1.50;;;0.70;;
27333;SDS011;14817;57.104;-2.094;2023-07-13T07:28:24;1.77;;;0.80;;
27333;SDS011;14817;57.104;-2.094;2023-07-13T07:30:54;1.30;;;0.60;;
27333;SDS011;14817;57.104;-2.094;2023-07-13T07:33:26;3.03;;;0.55;;
27333;SDS011;14817;57.104;-2.094;2023-07-13T07:35:53;1.23;;;0.50;;
27333;SDS011;14817;57.104;-2.094;2023-07-13T07:38:23;1.42;;;0.70;;
27333;SDS011;14817;57.104;-2.094;2023-07-13T07:40:50;2.63;;;0.80;;
27333;SDS011;14817;57.104;-2.094;2023-07-13T07:43:20;1.95;;;0.60;;
27333;SDS011;14817;57.104;-2.094;2023-07-13T07:45:47;1.65;;;0.43;;
27333;SDS011;14817;57.104;-2.094;2023-07-13T07:48:14;1.80;;;0.50;;
27333;SDS011;14817;57.104;-2.094;2023-07-13T07:50:41;0.88;;;0.40;;
27333;SDS011;14817;57.104;-2.094;2023-07-13T07:53:08;1.55;;;0.60;;
27333;SDS011;14817;57.104;-2.094;2023-07-13T07:55:36;1.70;;;0.60;;
27333;SDS011;14817;57.104;-2.094;2023-07-13T07:58:06;1.60;;;0.60;;
27333;SDS011;14817;57.104;-2.094;2023-07-13T08:00:53;1.73;;;0.70;;
27333;SDS011;14817;57.104;-2.094;2023-07-13T08:03:23;0.82;;;0.50;;
27333;SDS011;14817;57.104;-2.094;2023-07-13T08:05:53;2.67;;;0.70;;
27333;SDS011;14817;57.104;-2.094;2023-07-13T08:08:23;2.13;;;0.63;;
27333;SDS011;14817;57.104;-2.094;2023-07-13T08:10:50;1.75;;;0.70;;
27333;SDS011;14817;57.104;-2.094;2023-07-13T08:13:21;1.10;;;0.57;;
27333;SDS011;14817;57.104;-2.094;2023-07-13T08:15:48;1.45;;;0.60;;
27333;SDS011;14817;57.104;-2.094;2023-07-13T08:18:16;1.65;;;0.57;;
27333;SDS011;14817;57.104;-2.094;2023-07-13T08:20:43;1.27;;;0.80;;
27333;SDS011;14817;57.104;-2.094;2023-07-13T08:23:10;3.17;;;0.68;;
27333;SDS011;14817;57.104;-2.094;2023-07-13T08:25:38;1.73;;;0.60;;
27333;SDS011;14817;57.104;-2.094;2023-07-13T08:28:05;2.80;;;1.17;;
27333;SDS011;14817;57.104;-2.094;2023-07-13T08:30:32;2.47;;;0.77;;
27333;SDS011;14817;57.104;-2.094;2023-07-13T08:32:59;4.18;;;0.60;;
27333;SDS011;14817;57.104;-2.094;2023-07-13T08:35:26;2.08;;;0.90;;
27333;SDS011;14817;57.104;-2.094;2023-07-13T08:37:53;6.80;;;4.13;;
27333;SDS011;14817;57.104;-2.094;2023-07-13T08:40:22;5.40;;;3.40;;
27333;SDS011;14817;57.104;-2.094;2023-07-13T08:42:53;2.30;;;1.35;;
27333;SDS011;14817;57.104;-2.094;2023-07-13T08:45:24;3.65;;;1.30;;
27333;SDS011;14817;57.104;-2.094;2023-07-13T08:48:09;1.17;;;0.70;;
27333;SDS011;14817;57.104;-2.094;2023-07-13T08:50:58;2.33;;;1.10;;
27333;SDS011;14817;57.104;-2.094;2023-07-13T08:53:34;3.58;;;1.00;;
27333;SDS011;14817;57.104;-2.094;2023-07-13T08:56:07;3.20;;;1.35;;
27333;SDS011;14817;57.104;-2.094;2023-07-13T08:58:45;2.03;;;1.35;;
27333;SDS011;14817;57.104;-2.094;2023-07-13T09:01:45;5.07;;;1.20;;
27333;SDS011;14817;57.104;-2.094;2023-07-13T09:04:26;1.90;;;0.68;;
27333;SDS011;14817;57.104;-2.094;2023-07-13T09:12:34;2.45;;;0.88;;
27333;SDS011;14817;57.104;-2.094;2023-07-13T09:15:26;0.95;;;0.50;;
27333;SDS011;14817;57.104;-2.094;2023-07-13T09:18:04;1.83;;;0.63;;
27333;SDS011;14817;57.104;-2.094;2023-07-13T09:20:39;2.75;;;1.17;;
27333;SDS011;14817;57.104;-2.094;2023-07-13T09:23:14;1.73;;;0.70;;
27333;SDS011;14817;57.104;-2.094;2023-07-13T09:25:47;1.55;;;0.80;;
27333;SDS011;14817;57.104;-2.094;2023-07-13T09:28:26;2.83;;;1.15;;
27333;SDS011;14817;57.104;-2.094;2023-07-13T09:31:01;4.22;;;0.70;;
27333;SDS011;14817;57.104;-2.094;2023-07-13T09:33:39;1.60;;;0.55;;
27333;SDS011;14817;57.104;-2.094;2023-07-13T09:36:23;3.08;;;0.90;;
27333;SDS011;14817;57.104;-2.094;2023-07-13T09:38:58;2.38;;;0.80;;
27333;SDS011;14817;57.104;-2.094;2023-07-13T09:44:33;5.93;;;2.22;;
27333;SDS011;14817;57.104;-2.094;2023-07-13T09:47:02;1.73;;;0.70;;
27333;SDS011;14817;57.104;-2.094;2023-07-13T09:49:33;1.58;;;0.98;;
27333;SDS011;14817;57.104;-2.094;2023-07-13T09:52:06;2.13;;;0.80;;
27333;SDS011;14817;57.104;-2.094;2023-07-13T09:54:37;2.40;;;1.02;;
27333;SDS011;14817;57.104;-2.094;2023-07-13T09:57:15;3.20;;;0.85;;
27333;SDS011;14817;57.104;-2.094;2023-07-13T09:59:45;3.22;;;1.02;;
27333;SDS011;14817;57.104;-2.094;2023-07-13T10:05:02;2.72;;;0.93;;
27333;SDS011;14817;57.104;-2.094;2023-07-13T10:07:31;1.95;;;0.95;;
27333;SDS011;14817;57.104;-2.094;2023-07-13T10:10:12;2.60;;;0.82;;
27333;SDS011;14817;57.104;-2.094;2023-07-13T10:12:41;1.65;;;0.85;;
27333;SDS011;14817;57.104;-2.094;2023-07-13T10:15:13;3.92;;;0.85;;
27333;SDS011;14817;57.104;-2.094;2023-07-13T10:17:50;2.83;;;0.90;;
27333;SDS011;14817;57.104;-2.094;2023-07-13T10:20:19;2.17;;;0.82;;
27333;SDS011;14817;57.104;-2.094;2023-07-13T10:25:25;2.95;;;0.80;;
27333;SDS011;14817;57.104;-2.094;2023-07-13T10:30:51;2.42;;;0.80;;
27333;SDS011;14817;57.104;-2.094;2023-07-13T10:33:23;2.42;;;0.95;;
27333;SDS011;14817;57.104;-2.094;2023-07-13T10:35:51;3.13;;;0.80;;
27333;SDS011;14817;57.104;-2.094;2023-07-13T10:38:28;2.60;;;0.77;;
27333;SDS011;14817;57.104;-2.094;2023-07-13T10:40:57;3.95;;;1.00;;
27333;SDS011;14817;57.104;-2.094;2023-07-13T10:44:03;1.73;;;0.80;;
27333;SDS011;14817;57.104;-2.094;2023-07-13T10:46:25;2.65;;;0.85;;
27333;SDS011;14817;57.104;-2.094;2023-07-13T10:49:01;2.95;;;0.65;;
27333;SDS011;14817;57.104;-2.094;2023-07-13T10:51:31;2.08;;;0.98;;
27333;SDS011;14817;57.104;-2.094;2023-07-13T10:56:49;2.25;;;0.93;;
27333;SDS011;14817;57.104;-2.094;2023-07-13T10:59:23;3.75;;;1.10;;
27333;SDS011;14817;57.104;-2.094;2023-07-13T11:01:57;1.55;;;0.73;;
27333;SDS011;14817;57.104;-2.094;2023-07-13T11:04:53;2.88;;;0.95;;
27333;SDS011;14817;57.104;-2.094;2023-07-13T11:07:26;2.92;;;1.10;;
27333;SDS011;14817;57.104;-2.094;2023-07-13T11:09:59;1.58;;;0.90;;
27333;SDS011;14817;57.104;-2.094;2023-07-13T11:15:27;2.30;;;0.82;;
27333;SDS011;14817;57.104;-2.094;2023-07-13T11:17:57;1.20;;;0.60;;
27333;SDS011;14817;57.104;-2.094;2023-07-13T11:20:31;2.33;;;0.70;;
27333;SDS011;14817;57.104;-2.094;2023-07-13T11:23:08;3.40;;;1.08;;
27333;SDS011;14817;57.104;-2.094;2023-07-13T11:25:38;2.13;;;0.80;;
27333;SDS011;14817;57.104;-2.094;2023-07-13T11:28:15;3.38;;;0.93;;
27333;SDS011;14817;57.104;-2.094;2023-07-13T11:33:27;4.13;;;0.85;;
27333;SDS011;14817;57.104;-2.094;2023-07-13T11:36:13;2.22;;;0.77;;
27333;SDS011;14817;57.104;-2.094;2023-07-13T11:38:42;2.72;;;1.10;;
27333;SDS011;14817;57.104;-2.094;2023-07-13T11:41:19;1.27;;;0.47;;
27333;SDS011;14817;57.104;-2.094;2023-07-13T11:43:49;1.50;;;0.80;;
27333;SDS011;14817;57.104;-2.094;2023-07-13T11:46:21;1.45;;;0.80;;
27333;SDS011;14817;57.104;-2.094;2023-07-13T11:48:51;1.33;;;0.82;;
27333;SDS011;14817;57.104;-2.094;2023-07-13T11:51:20;1.73;;;0.93;;
27333;SDS011;14817;57.104;-2.094;2023-07-13T11:53:48;2.75;;;0.95;;
27333;SDS011;14817;57.104;-2.094;2023-07-13T11:56:17;2.95;;;1.05;;
27333;SDS011;14817;57.104;-2.094;2023-07-13T11:58:44;2.97;;;1.20;;
27333;SDS011;14817;57.104;-2.094;2023-07-13T12:01:17;2.50;;;0.80;;
27333;SDS011;14817;57.104;-2.094;2023-07-13T12:03:48;3.60;;;1.10;;
27333;SDS011;14817;57.104;-2.094;2023-07-13T12:08:52;3.78;;;0.93;;
27333;SDS011;14817;57.104;-2.094;2023-07-13T12:11:26;4.20;;;1.48;;
27333;SDS011;14817;57.104;-2.094;2023-07-13T12:13:54;4.63;;;1.48;;
27333;SDS011;14817;57.104;-2.094;2023-07-13T12:18:59;15.00;;;2.08;;
27333;SDS011;14817;57.104;-2.094;2023-07-13T12:21:29;8.10;;;1.60;;
27333;SDS011;14817;57.104;-2.094;2023-07-13T12:23:59;6.22;;;1.38;;
27333;SDS011;14817;57.104;-2.094;2023-07-13T12:26:29;5.32;;;1.33;;
27333;SDS011;14817;57.104;-2.094;2023-07-13T12:28:59;3.13;;;0.90;;
27333;SDS011;14817;57.104;-2.094;2023-07-13T12:34:02;4.32;;;1.25;;
27333;SDS011;14817;57.104;-2.094;2023-07-13T12:36:35;6.88;;;1.48;;
27333;SDS011;14817;57.104;-2.094;2023-07-13T12:39:12;4.57;;;1.23;;
27333;SDS011;14817;57.104;-2.094;2023-07-13T12:41:41;5.63;;;1.17;;
27333;SDS011;14817;57.104;-2.094;2023-07-13T12:44:11;4.75;;;1.13;;
27333;SDS011;14817;57.104;-2.094;2023-07-13T12:46:50;2.17;;;0.73;;
27333;SDS011;14817;57.104;-2.094;2023-07-13T12:49:23;2.53;;;0.50;;
27333;SDS011;14817;57.104;-2.094;2023-07-13T12:51:57;4.07;;;0.40;;
27333;SDS011;14817;57.104;-2.094;2023-07-13T12:54:26;1.55;;;0.47;;
27333;SDS011;14817;57.104;-2.094;2023-07-13T12:56:54;1.70;;;0.50;;
27333;SDS011;14817;57.104;-2.094;2023-07-13T12:59:25;1.40;;;0.63;;
27333;SDS011;14817;57.104;-2.094;2023-07-13T13:01:56;2.75;;;0.55;;
27333;SDS011;14817;57.104;-2.094;2023-07-13T13:04:23;2.70;;;0.45;;
27333;SDS011;14817;57.104;-2.094;2023-07-13T13:07:00;0.77;;;0.40;;
27333;SDS011;14817;57.104;-2.094;2023-07-13T13:09:28;2.25;;;0.20;;
27333;SDS011;14817;57.104;-2.094;2023-07-13T13:11:55;1.48;;;0.30;;
27333;SDS011;14817;57.104;-2.094;2023-07-13T13:14:22;0.98;;;0.25;;
27333;SDS011;14817;57.104;-2.094;2023-07-13T13:16:50;2.17;;;0.35;;
27333;SDS011;14817;57.104;-2.094;2023-07-13T13:19:27;0.35;;;0.13;;
27333;SDS011;14817;57.104;-2.094;2023-07-13T13:21:55;0.80;;;0.10;;
27333;SDS011;14817;57.104;-2.094;2023-07-13T13:24:24;0.55;;;0.30;;
27333;SDS011;14817;57.104;-2.094;2023-07-13T13:26:54;1.70;;;0.40;;
27333;SDS011;14817;57.104;-2.094;2023-07-13T13:29:24;1.23;;;0.32;;
27333;SDS011;14817;57.104;-2.094;2023-07-13T13:31:53;3.03;;;0.40;;
27333;SDS011;14817;57.104;-2.094;2023-07-13T13:34:21;2.88;;;0.55;;
27333;SDS011;14817;57.104;-2.094;2023-07-13T13:36:53;3.60;;;0.57;;
27333;SDS011;14817;57.104;-2.094;2023-07-13T13:39:35;1.55;;;0.40;;
27333;SDS011;14817;57.104;-2.094;2023-07-13T13:42:03;1.13;;;0.32;;
27333;SDS011;14817;57.104;-2.094;2023-07-13T13:44:31;0.85;;;0.43;;
27333;SDS011;14817;57.104;-2.094;2023-07-13T13:46:58;2.50;;;0.70;;
27333;SDS011;14817;57.104;-2.094;2023-07-13T13:49:25;2.40;;;0.50;;
27333;SDS011;14817;57.104;-2.094;2023-07-13T13:51:53;1.60;;;0.30;;
27333;SDS011;14817;57.104;-2.094;2023-07-13T13:54:21;0.43;;;0.40;;
27333;SDS011;14817;57.104;-2.094;2023-07-13T13:56:50;2.70;;;0.75;;
27333;SDS011;14817;57.104;-2.094;2023-07-13T13:59:18;1.88;;;0.50;;
27333;SDS011;14817;57.104;-2.094;2023-07-13T14:01:46;2.90;;;0.60;;
27333;SDS011;14817;57.104;-2.094;2023-07-13T14:04:17;2.43;;;1.00;;
27333;SDS011;14817;57.104;-2.094;2023-07-13T14:06:46;1.95;;;0.57;;
27333;SDS011;14817;57.104;-2.094;2023-07-13T14:09:15;1.52;;;0.70;;
27333;SDS011;14817;57.104;-2.094;2023-07-13T14:11:45;2.97;;;0.70;;
27333;SDS011;14817;57.104;-2.094;2023-07-13T14:14:17;2.20;;;0.90;;
27333;SDS011;14817;57.104;-2.094;2023-07-13T14:16:47;2.40;;;0.80;;
27333;SDS011;14817;57.104;-2.094;2023-07-13T14:19:20;3.78;;;0.90;;
27333;SDS011;14817;57.104;-2.094;2023-07-13T14:21:47;2.80;;;1.00;;
27333;SDS011;14817;57.104;-2.094;2023-07-13T14:24:16;3.67;;;0.98;;
27333;SDS011;14817;57.104;-2.094;2023-07-13T14:26:45;1.52;;;0.90;;
27333;SDS011;14817;57.104;-2.094;2023-07-13T14:29:13;4.45;;;0.95;;
27333;SDS011;14817;57.104;-2.094;2023-07-13T14:31:44;1.92;;;1.05;;
27333;SDS011;14817;57.104;-2.094;2023-07-13T14:34:11;3.63;;;1.13;;
27333;SDS011;14817;57.104;-2.094;2023-07-13T14:36:41;4.65;;;1.00;;
27333;SDS011;14817;57.104;-2.094;2023-07-13T14:39:16;2.60;;;0.93;;
27333;SDS011;14817;57.104;-2.094;2023-07-13T14:41:45;4.90;;;1.15;;
27333;SDS011;14817;57.104;-2.094;2023-07-13T14:44:12;2.78;;;0.77;;
27333;SDS011;14817;57.104;-2.094;2023-07-13T14:46:44;4.25;;;1.00;;
27333;SDS011;14817;57.104;-2.094;2023-07-13T14:49:15;2.25;;;0.77;;
27333;SDS011;14817;57.104;-2.094;2023-07-13T14:51:50;2.30;;;0.90;;
27333;SDS011;14817;57.104;-2.094;2023-07-13T14:54:18;3.15;;;1.08;;
27333;SDS011;14817;57.104;-2.094;2023-07-13T14:56:45;1.45;;;0.80;;
27333;SDS011;14817;57.104;-2.094;2023-07-13T14:59:11;4.55;;;1.90;;
27333;SDS011;14817;57.104;-2.094;2023-07-13T15:01:39;5.20;;;3.33;;
27333;SDS011;14817;57.104;-2.094;2023-07-13T15:04:07;3.38;;;1.30;;
27333;SDS011;14817;57.104;-2.094;2023-07-13T15:09:21;3.97;;;1.10;;
27333;SDS011;14817;57.104;-2.094;2023-07-13T15:11:48;1.83;;;0.80;;
27333;SDS011;14817;57.104;-2.094;2023-07-13T15:14:15;6.75;;;1.20;;
27333;SDS011;14817;57.104;-2.094;2023-07-13T15:16:43;2.85;;;1.33;;
27333;SDS011;14817;57.104;-2.094;2023-07-13T15:19:11;2.88;;;0.75;;
27333;SDS011;14817;57.104;-2.094;2023-07-13T15:21:38;2.83;;;1.17;;
27333;SDS011;14817;57.104;-2.094;2023-07-13T15:24:05;4.30;;;1.30;;
27333;SDS011;14817;57.104;-2.094;2023-07-13T15:26:35;6.28;;;1.55;;
27333;SDS011;14817;57.104;-2.094;2023-07-13T15:29:02;3.90;;;1.13;;